sensor_id;sensor_type;location;lat;lon;timestamp;P1;durP1;ratioP1;P2;durP2;ratioP2
13483;SDS011;6814;57.786;12.080;2022-10-22T00:02:17;16.33;;;9.83;;
13483;SDS011;6814;57.786;12.080;2022-10-22T00:04:44;14.30;;;9.87;;
13483;SDS011;6814;57.786;12.080;2022-10-22T00:07:11;15.10;;;10.63;;
13483;SDS011;6814;57.786;12.080;2022-10-22T00:09:37;10.60;;;9.50;;
13483;SDS011;6814;57.786;12.080;2022-10-22T00:12:04;12.47;;;10.23;;
13483;SDS011;6814;57.786;12.080;2022-10-22T00:14:32;12.03;;;10.80;;
13483;SDS011;6814;57.786;12.080;2022-10-22T00:16:58;13.00;;;10.93;;
13483;SDS011;6814;57.786;12.080;2022-10-22T00:19:25;20.80;;;10.97;;
13483;SDS011;6814;57.786;12.080;2022-10-22T00:21:52;13.13;;;10.40;;
13483;SDS011;6814;57.786;12.080;2022-10-22T00:24:18;11.87;;;10.67;;
13483;SDS011;6814;57.786;12.080;2022-10-22T00:26:45;42.03;;;12.03;;
13483;SDS011;6814;57.786;12.080;2022-10-22T00:29:11;14.43;;;10.57;;
13483;SDS011;6814;57.786;12.080;2022-10-22T00:31:39;12.77;;;10.43;;
13483;SDS011;6814;57.786;12.080;2022-10-22T00:34:06;12.57;;;10.40;;
13483;SDS011;6814;57.786;12.080;2022-10-22T00:36:32;12.40;;;9.90;;
13483;SDS011;6814;57.786;12.080;2022-10-22T00:38:59;12.47;;;10.47;;
13483;SDS011;6814;57.786;12.080;2022-10-22T00:41:25;11.00;;;9.90;;
13483;SDS011;6814;57.786;12.080;2022-10-22T00:43:53;36.40;;;11.13;;
13483;SDS011;6814;57.786;12.080;2022-10-22T00:46:20;15.23;;;10.40;;
13483;SDS011;6814;57.786;12.080;2022-10-22T00:48:48;57.67;;;12.57;;
13483;SDS011;6814;57.786;12.080;2022-10-22T00:51:15;22.17;;;10.13;;
13483;SDS011;6814;57.786;12.080;2022-10-22T00:53:42;11.80;;;9.77;;
13483;SDS011;6814;57.786;12.080;2022-10-22T00:56:10;20.50;;;11.50;;
13483;SDS011;6814;57.786;12.080;2022-10-22T00:58:38;57.10;;;13.27;;
13483;SDS011;6814;57.786;12.080;2022-10-22T01:01:06;37.40;;;11.83;;
13483;SDS011;6814;57.786;12.080;2022-10-22T01:03:34;33.03;;;12.23;;
13483;SDS011;6814;57.786;12.080;2022-10-22T01:06:03;126.90;;;16.83;;
13483;SDS011;6814;57.786;12.080;2022-10-22T01:08:31;73.63;;;13.47;;
13483;SDS011;6814;57.786;12.080;2022-10-22T01:11:03;124.17;;;15.57;;
13483;SDS011;6814;57.786;12.080;2022-10-22T01:13:32;56.17;;;13.90;;
13483;SDS011;6814;57.786;12.080;2022-10-22T01:16:03;66.43;;;14.40;;
13483;SDS011;6814;57.786;12.080;2022-10-22T01:18:34;104.73;;;15.03;;
13483;SDS011;6814;57.786;12.080;2022-10-22T01:21:06;61.70;;;13.90;;
13483;SDS011;6814;57.786;12.080;2022-10-22T01:23:40;27.10;;;12.20;;
13483;SDS011;6814;57.786;12.080;2022-10-22T01:26:11;132.70;;;16.53;;
13483;SDS011;6814;57.786;12.080;2022-10-22T01:28:48;94.13;;;15.33;;
13483;SDS011;6814;57.786;12.080;2022-10-22T01:31:16;36.17;;;13.37;;
13483;SDS011;6814;57.786;12.080;2022-10-22T01:33:43;53.57;;;13.93;;
13483;SDS011;6814;57.786;12.080;2022-10-22T01:36:11;16.67;;;12.17;;
13483;SDS011;6814;57.786;12.080;2022-10-22T01:38:37;16.57;;;12.37;;
13483;SDS011;6814;57.786;12.080;2022-10-22T01:41:04;21.93;;;12.63;;
13483;SDS011;6814;57.786;12.080;2022-10-22T01:43:32;17.40;;;12.00;;
13483;SDS011;6814;57.786;12.080;2022-10-22T01:46:00;41.70;;;13.20;;
13483;SDS011;6814;57.786;12.080;2022-10-22T01:48:32;14.17;;;12.57;;
13483;SDS011;6814;57.786;12.080;2022-10-22T01:51:08;60.93;;;13.97;;
13483;SDS011;6814;57.786;12.080;2022-10-22T01:53:38;41.97;;;12.77;;
13483;SDS011;6814;57.786;12.080;2022-10-22T01:56:13;16.37;;;11.67;;
13483;SDS011;6814;57.786;12.080;2022-10-22T01:58:44;18.40;;;11.80;;
13483;SDS011;6814;57.786;12.080;2022-10-22T02:01:16;42.57;;;13.13;;
13483;SDS011;6814;57.786;12.080;2022-10-22T02:03:44;72.80;;;15.20;;
13483;SDS011;6814;57.786;12.080;2022-10-22T02:06:13;15.30;;;12.03;;
13483;SDS011;6814;57.786;12.080;2022-10-22T02:08:42;14.73;;;12.03;;
13483;SDS011;6814;57.786;12.080;2022-10-22T02:11:08;20.20;;;12.13;;
13483;SDS011;6814;57.786;12.080;2022-10-22T02:13:38;17.33;;;13.00;;
13483;SDS011;6814;57.786;12.080;2022-10-22T02:16:05;52.50;;;13.43;;
13483;SDS011;6814;57.786;12.080;2022-10-22T02:18:34;41.60;;;13.70;;
13483;SDS011;6814;57.786;12.080;2022-10-22T02:21:02;15.13;;;12.13;;
13483;SDS011;6814;57.786;12.080;2022-10-22T02:23:29;21.37;;;12.87;;
13483;SDS011;6814;57.786;12.080;2022-10-22T02:25:58;43.70;;;14.93;;
13483;SDS011;6814;57.786;12.080;2022-10-22T02:28:26;63.10;;;15.47;;
13483;SDS011;6814;57.786;12.080;2022-10-22T02:30:56;38.20;;;13.50;;
13483;SDS011;6814;57.786;12.080;2022-10-22T02:33:25;17.03;;;13.50;;
13483;SDS011;6814;57.786;12.080;2022-10-22T02:35:53;44.07;;;14.50;;
13483;SDS011;6814;57.786;12.080;2022-10-22T02:38:20;55.20;;;14.97;;
13483;SDS011;6814;57.786;12.080;2022-10-22T02:40:48;27.03;;;13.20;;
13483;SDS011;6814;57.786;12.080;2022-10-22T02:43:14;37.27;;;13.97;;
13483;SDS011;6814;57.786;12.080;2022-10-22T02:45:40;29.10;;;13.27;;
13483;SDS011;6814;57.786;12.080;2022-10-22T02:48:07;43.17;;;14.10;;
13483;SDS011;6814;57.786;12.080;2022-10-22T02:50:33;23.33;;;12.83;;
13483;SDS011;6814;57.786;12.080;2022-10-22T02:53:02;82.10;;;16.13;;
13483;SDS011;6814;57.786;12.080;2022-10-22T02:55:28;13.87;;;11.83;;
13483;SDS011;6814;57.786;12.080;2022-10-22T02:57:54;18.60;;;12.90;;
13483;SDS011;6814;57.786;12.080;2022-10-22T03:00:21;23.70;;;12.67;;
13483;SDS011;6814;57.786;12.080;2022-10-22T03:02:48;23.40;;;12.93;;
13483;SDS011;6814;57.786;12.080;2022-10-22T03:05:14;15.83;;;12.13;;
13483;SDS011;6814;57.786;12.080;2022-10-22T03:07:41;18.73;;;12.90;;
13483;SDS011;6814;57.786;12.080;2022-10-22T03:10:09;17.80;;;12.63;;
13483;SDS011;6814;57.786;12.080;2022-10-22T03:12:35;14.23;;;12.00;;
13483;SDS011;6814;57.786;12.080;2022-10-22T03:15:02;14.37;;;11.50;;
13483;SDS011;6814;57.786;12.080;2022-10-22T03:17:28;12.97;;;11.40;;
13483;SDS011;6814;57.786;12.080;2022-10-22T03:19:55;14.83;;;11.97;;
13483;SDS011;6814;57.786;12.080;2022-10-22T03:22:23;13.60;;;12.10;;
13483;SDS011;6814;57.786;12.080;2022-10-22T03:24:51;15.03;;;11.37;;
13483;SDS011;6814;57.786;12.080;2022-10-22T03:27:20;34.10;;;12.90;;
13483;SDS011;6814;57.786;12.080;2022-10-22T03:29:47;14.43;;;11.90;;
13483;SDS011;6814;57.786;12.080;2022-10-22T03:32:15;28.47;;;12.87;;
13483;SDS011;6814;57.786;12.080;2022-10-22T03:34:41;17.63;;;11.93;;
13483;SDS011;6814;57.786;12.080;2022-10-22T03:37:08;20.00;;;12.50;;
13483;SDS011;6814;57.786;12.080;2022-10-22T03:39:34;15.50;;;12.00;;
13483;SDS011;6814;57.786;12.080;2022-10-22T03:42:01;32.20;;;13.20;;
13483;SDS011;6814;57.786;12.080;2022-10-22T03:44:29;17.77;;;11.07;;
13483;SDS011;6814;57.786;12.080;2022-10-22T03:46:56;88.37;;;14.07;;
13483;SDS011;6814;57.786;12.080;2022-10-22T03:49:23;67.50;;;14.30;;
13483;SDS011;6814;57.786;12.080;2022-10-22T03:51:49;18.07;;;12.13;;
13483;SDS011;6814;57.786;12.080;2022-10-22T03:54:16;117.07;;;16.27;;
13483;SDS011;6814;57.786;12.080;2022-10-22T03:56:42;27.00;;;12.50;;
13483;SDS011;6814;57.786;12.080;2022-10-22T03:59:09;15.83;;;11.53;;
13483;SDS011;6814;57.786;12.080;2022-10-22T04:01:38;17.50;;;11.70;;
13483;SDS011;6814;57.786;12.080;2022-10-22T04:04:04;13.77;;;11.10;;
13483;SDS011;6814;57.786;12.080;2022-10-22T04:06:31;31.70;;;12.47;;
13483;SDS011;6814;57.786;12.080;2022-10-22T04:08:57;22.93;;;11.73;;
13483;SDS011;6814;57.786;12.080;2022-10-22T04:11:25;29.57;;;12.57;;
13483;SDS011;6814;57.786;12.080;2022-10-22T04:13:51;31.63;;;12.40;;
13483;SDS011;6814;57.786;12.080;2022-10-22T04:16:19;42.87;;;13.53;;
13483;SDS011;6814;57.786;12.080;2022-10-22T04:18:48;24.73;;;12.53;;
13483;SDS011;6814;57.786;12.080;2022-10-22T04:21:15;13.23;;;11.70;;
13483;SDS011;6814;57.786;12.080;2022-10-22T04:23:43;14.00;;;11.87;;
13483;SDS011;6814;57.786;12.080;2022-10-22T04:26:09;13.80;;;11.87;;
13483;SDS011;6814;57.786;12.080;2022-10-22T04:28:36;12.50;;;11.27;;
13483;SDS011;6814;57.786;12.080;2022-10-22T04:31:06;13.40;;;11.90;;
13483;SDS011;6814;57.786;12.080;2022-10-22T04:33:32;13.73;;;12.07;;
13483;SDS011;6814;57.786;12.080;2022-10-22T04:36:00;13.30;;;12.00;;
13483;SDS011;6814;57.786;12.080;2022-10-22T04:38:30;12.43;;;10.87;;
13483;SDS011;6814;57.786;12.080;2022-10-22T04:40:57;12.43;;;11.13;;
13483;SDS011;6814;57.786;12.080;2022-10-22T04:43:23;12.57;;;11.23;;
13483;SDS011;6814;57.786;12.080;2022-10-22T04:45:50;14.10;;;11.97;;
13483;SDS011;6814;57.786;12.080;2022-10-22T04:48:16;12.27;;;10.97;;
13483;SDS011;6814;57.786;12.080;2022-10-22T04:50:42;13.47;;;11.07;;
13483;SDS011;6814;57.786;12.080;2022-10-22T04:53:10;11.90;;;10.70;;
13483;SDS011;6814;57.786;12.080;2022-10-22T04:55:37;13.93;;;11.33;;
13483;SDS011;6814;57.786;12.080;2022-10-22T04:58:03;12.27;;;11.03;;
13483;SDS011;6814;57.786;12.080;2022-10-22T05:00:30;12.60;;;10.77;;
13483;SDS011;6814;57.786;12.080;2022-10-22T05:02:56;12.00;;;10.00;;
13483;SDS011;6814;57.786;12.080;2022-10-22T05:05:23;14.27;;;11.23;;
13483;SDS011;6814;57.786;12.080;2022-10-22T05:07:49;11.93;;;10.73;;
13483;SDS011;6814;57.786;12.080;2022-10-22T05:10:17;11.53;;;10.40;;
13483;SDS011;6814;57.786;12.080;2022-10-22T05:12:44;12.07;;;10.17;;
13483;SDS011;6814;57.786;12.080;2022-10-22T05:15:10;13.63;;;11.57;;
13483;SDS011;6814;57.786;12.080;2022-10-22T05:17:37;11.97;;;10.73;;
13483;SDS011;6814;57.786;12.080;2022-10-22T05:20:04;33.37;;;12.30;;
13483;SDS011;6814;57.786;12.080;2022-10-22T05:22:32;20.77;;;11.40;;
13483;SDS011;6814;57.786;12.080;2022-10-22T05:24:58;13.53;;;11.37;;
13483;SDS011;6814;57.786;12.080;2022-10-22T05:27:26;47.63;;;11.97;;
13483;SDS011;6814;57.786;12.080;2022-10-22T05:29:53;174.13;;;16.83;;
13483;SDS011;6814;57.786;12.080;2022-10-22T05:32:20;49.83;;;12.03;;
13483;SDS011;6814;57.786;12.080;2022-10-22T05:34:47;81.97;;;14.17;;
13483;SDS011;6814;57.786;12.080;2022-10-22T05:37:13;65.03;;;12.37;;
13483;SDS011;6814;57.786;12.080;2022-10-22T05:39:40;102.57;;;13.90;;
13483;SDS011;6814;57.786;12.080;2022-10-22T05:42:06;180.57;;;16.30;;
13483;SDS011;6814;57.786;12.080;2022-10-22T05:44:34;42.30;;;11.93;;
13483;SDS011;6814;57.786;12.080;2022-10-22T05:47:01;106.43;;;15.17;;
13483;SDS011;6814;57.786;12.080;2022-10-22T05:49:27;49.37;;;13.93;;
13483;SDS011;6814;57.786;12.080;2022-10-22T05:51:54;152.07;;;16.20;;
13483;SDS011;6814;57.786;12.080;2022-10-22T05:54:20;57.77;;;12.13;;
13483;SDS011;6814;57.786;12.080;2022-10-22T05:56:47;75.70;;;13.57;;
13483;SDS011;6814;57.786;12.080;2022-10-22T05:59:13;25.47;;;10.93;;
13483;SDS011;6814;57.786;12.080;2022-10-22T06:01:41;114.37;;;14.30;;
13483;SDS011;6814;57.786;12.080;2022-10-22T06:04:09;89.47;;;13.50;;
13483;SDS011;6814;57.786;12.080;2022-10-22T06:06:37;88.67;;;13.77;;
13483;SDS011;6814;57.786;12.080;2022-10-22T06:09:05;28.23;;;11.87;;
13483;SDS011;6814;57.786;12.080;2022-10-22T06:11:33;42.63;;;12.80;;
13483;SDS011;6814;57.786;12.080;2022-10-22T06:13:59;14.80;;;11.10;;
13483;SDS011;6814;57.786;12.080;2022-10-22T06:16:27;14.20;;;11.20;;
13483;SDS011;6814;57.786;12.080;2022-10-22T06:18:57;22.20;;;11.30;;
13483;SDS011;6814;57.786;12.080;2022-10-22T06:21:23;21.03;;;11.20;;
13483;SDS011;6814;57.786;12.080;2022-10-22T06:23:50;15.00;;;11.07;;
13483;SDS011;6814;57.786;12.080;2022-10-22T06:26:16;59.17;;;13.33;;
13483;SDS011;6814;57.786;12.080;2022-10-22T06:28:43;11.90;;;10.70;;
13483;SDS011;6814;57.786;12.080;2022-10-22T06:31:09;14.03;;;11.43;;
13483;SDS011;6814;57.786;12.080;2022-10-22T06:33:36;23.03;;;11.73;;
13483;SDS011;6814;57.786;12.080;2022-10-22T06:36:09;34.70;;;12.10;;
13483;SDS011;6814;57.786;12.080;2022-10-22T06:38:35;29.77;;;12.23;;
13483;SDS011;6814;57.786;12.080;2022-10-22T06:41:03;31.03;;;12.10;;
13483;SDS011;6814;57.786;12.080;2022-10-22T06:43:29;44.23;;;11.63;;
13483;SDS011;6814;57.786;12.080;2022-10-22T06:45:59;34.53;;;11.73;;
13483;SDS011;6814;57.786;12.080;2022-10-22T06:48:26;58.10;;;12.40;;
13483;SDS011;6814;57.786;12.080;2022-10-22T06:50:52;94.47;;;13.93;;
13483;SDS011;6814;57.786;12.080;2022-10-22T06:53:20;46.30;;;11.57;;
13483;SDS011;6814;57.786;12.080;2022-10-22T06:55:47;21.77;;;10.27;;
13483;SDS011;6814;57.786;12.080;2022-10-22T06:58:14;14.50;;;9.97;;
13483;SDS011;6814;57.786;12.080;2022-10-22T07:00:40;10.93;;;9.83;;
13483;SDS011;6814;57.786;12.080;2022-10-22T07:03:07;13.50;;;10.00;;
13483;SDS011;6814;57.786;12.080;2022-10-22T07:05:34;10.37;;;9.33;;
13483;SDS011;6814;57.786;12.080;2022-10-22T07:08:01;11.17;;;9.90;;
13483;SDS011;6814;57.786;12.080;2022-10-22T07:10:28;12.87;;;10.23;;
13483;SDS011;6814;57.786;12.080;2022-10-22T07:12:55;14.87;;;10.20;;
13483;SDS011;6814;57.786;12.080;2022-10-22T07:15:22;11.13;;;9.30;;
13483;SDS011;6814;57.786;12.080;2022-10-22T07:17:48;10.33;;;9.33;;
13483;SDS011;6814;57.786;12.080;2022-10-22T07:20:15;10.47;;;9.43;;
13483;SDS011;6814;57.786;12.080;2022-10-22T07:22:42;10.50;;;9.40;;
13483;SDS011;6814;57.786;12.080;2022-10-22T07:25:09;9.27;;;8.37;;
13483;SDS011;6814;57.786;12.080;2022-10-22T07:27:37;9.70;;;8.80;;
13483;SDS011;6814;57.786;12.080;2022-10-22T07:30:04;8.97;;;8.13;;
13483;SDS011;6814;57.786;12.080;2022-10-22T07:32:30;9.27;;;8.47;;
13483;SDS011;6814;57.786;12.080;2022-10-22T07:34:57;9.13;;;8.33;;
13483;SDS011;6814;57.786;12.080;2022-10-22T07:37:24;8.60;;;7.80;;
13483;SDS011;6814;57.786;12.080;2022-10-22T07:39:50;8.77;;;7.87;;
13483;SDS011;6814;57.786;12.080;2022-10-22T07:42:17;7.50;;;6.90;;
13483;SDS011;6814;57.786;12.080;2022-10-22T07:44:45;7.43;;;6.83;;
13483;SDS011;6814;57.786;12.080;2022-10-22T07:47:11;7.37;;;6.67;;
13483;SDS011;6814;57.786;12.080;2022-10-22T07:49:38;7.37;;;6.77;;
13483;SDS011;6814;57.786;12.080;2022-10-22T07:52:05;8.27;;;7.30;;
13483;SDS011;6814;57.786;12.080;2022-10-22T07:54:32;7.23;;;6.63;;
13483;SDS011;6814;57.786;12.080;2022-10-22T07:56:58;7.20;;;6.60;;
13483;SDS011;6814;57.786;12.080;2022-10-22T07:59:25;7.97;;;7.27;;
13483;SDS011;6814;57.786;12.080;2022-10-22T08:01:53;8.00;;;7.30;;
13483;SDS011;6814;57.786;12.080;2022-10-22T08:04:19;8.43;;;7.63;;
13483;SDS011;6814;57.786;12.080;2022-10-22T08:06:46;6.80;;;6.20;;
13483;SDS011;6814;57.786;12.080;2022-10-22T08:09:13;7.03;;;6.47;;
13483;SDS011;6814;57.786;12.080;2022-10-22T08:11:40;6.50;;;6.00;;
13483;SDS011;6814;57.786;12.080;2022-10-22T08:14:06;6.13;;;5.63;;
13483;SDS011;6814;57.786;12.080;2022-10-22T08:16:33;6.90;;;6.40;;
13483;SDS011;6814;57.786;12.080;2022-10-22T08:19:01;6.60;;;6.10;;
13483;SDS011;6814;57.786;12.080;2022-10-22T08:21:27;7.20;;;6.60;;
13483;SDS011;6814;57.786;12.080;2022-10-22T08:23:54;6.40;;;5.90;;
13483;SDS011;6814;57.786;12.080;2022-10-22T08:26:20;6.03;;;5.53;;
13483;SDS011;6814;57.786;12.080;2022-10-22T08:28:47;6.73;;;6.13;;
13483;SDS011;6814;57.786;12.080;2022-10-22T08:31:13;6.20;;;5.70;;
13483;SDS011;6814;57.786;12.080;2022-10-22T08:33:40;5.93;;;5.47;;
13483;SDS011;6814;57.786;12.080;2022-10-22T08:36:09;5.87;;;5.37;;
13483;SDS011;6814;57.786;12.080;2022-10-22T08:38:36;5.77;;;5.30;;
13483;SDS011;6814;57.786;12.080;2022-10-22T08:41:07;6.03;;;5.47;;
13483;SDS011;6814;57.786;12.080;2022-10-22T08:43:38;5.50;;;5.10;;
13483;SDS011;6814;57.786;12.080;2022-10-22T08:48:51;5.90;;;5.40;;
13483;SDS011;6814;57.786;12.080;2022-10-22T08:51:20;4.87;;;4.57;;
13483;SDS011;6814;57.786;12.080;2022-10-22T08:53:52;5.33;;;4.93;;
13483;SDS011;6814;57.786;12.080;2022-10-22T08:56:22;6.03;;;5.43;;
13483;SDS011;6814;57.786;12.080;2022-10-22T08:58:49;6.10;;;5.50;;
13483;SDS011;6814;57.786;12.080;2022-10-22T09:01:19;5.57;;;5.00;;
13483;SDS011;6814;57.786;12.080;2022-10-22T09:03:48;6.17;;;5.67;;
13483;SDS011;6814;57.786;12.080;2022-10-22T09:06:17;7.33;;;6.60;;
13483;SDS011;6814;57.786;12.080;2022-10-22T09:08:45;8.17;;;7.30;;
13483;SDS011;6814;57.786;12.080;2022-10-22T09:11:14;7.90;;;6.77;;
13483;SDS011;6814;57.786;12.080;2022-10-22T09:13:42;10.33;;;7.83;;
13483;SDS011;6814;57.786;12.080;2022-10-22T09:16:13;7.87;;;7.07;;
13483;SDS011;6814;57.786;12.080;2022-10-22T09:18:40;6.10;;;5.43;;
13483;SDS011;6814;57.786;12.080;2022-10-22T09:21:12;6.60;;;5.97;;
13483;SDS011;6814;57.786;12.080;2022-10-22T09:23:48;5.73;;;5.23;;
13483;SDS011;6814;57.786;12.080;2022-10-22T09:26:17;4.23;;;3.83;;
13483;SDS011;6814;57.786;12.080;2022-10-22T09:28:48;4.13;;;3.83;;
13483;SDS011;6814;57.786;12.080;2022-10-22T09:31:14;4.63;;;4.33;;
13483;SDS011;6814;57.786;12.080;2022-10-22T09:33:41;4.60;;;4.30;;
13483;SDS011;6814;57.786;12.080;2022-10-22T09:36:14;4.30;;;4.00;;
13483;SDS011;6814;57.786;12.080;2022-10-22T09:38:45;4.43;;;4.07;;
13483;SDS011;6814;57.786;12.080;2022-10-22T09:41:14;3.30;;;3.00;;
13483;SDS011;6814;57.786;12.080;2022-10-22T09:43:41;4.50;;;2.83;;
13483;SDS011;6814;57.786;12.080;2022-10-22T09:46:13;3.60;;;3.30;;
13483;SDS011;6814;57.786;12.080;2022-10-22T09:48:41;2.90;;;2.70;;
13483;SDS011;6814;57.786;12.080;2022-10-22T09:51:09;3.50;;;3.30;;
13483;SDS011;6814;57.786;12.080;2022-10-22T09:53:40;2.53;;;2.40;;
13483;SDS011;6814;57.786;12.080;2022-10-22T09:56:08;2.50;;;2.40;;
13483;SDS011;6814;57.786;12.080;2022-10-22T09:58:43;2.93;;;2.73;;
13483;SDS011;6814;57.786;12.080;2022-10-22T10:01:14;2.73;;;2.60;;
13483;SDS011;6814;57.786;12.080;2022-10-22T10:03:41;3.17;;;2.97;;
13483;SDS011;6814;57.786;12.080;2022-10-22T10:06:08;3.20;;;3.00;;
13483;SDS011;6814;57.786;12.080;2022-10-22T10:08:34;3.37;;;3.17;;
13483;SDS011;6814;57.786;12.080;2022-10-22T10:11:01;3.43;;;3.23;;
13483;SDS011;6814;57.786;12.080;2022-10-22T10:13:44;3.63;;;3.33;;
13483;SDS011;6814;57.786;12.080;2022-10-22T10:16:17;3.80;;;3.50;;
13483;SDS011;6814;57.786;12.080;2022-10-22T10:18:57;3.90;;;3.47;;
13483;SDS011;6814;57.786;12.080;2022-10-22T10:21:29;3.87;;;3.57;;
13483;SDS011;6814;57.786;12.080;2022-10-22T10:23:59;3.70;;;3.40;;
13483;SDS011;6814;57.786;12.080;2022-10-22T10:26:30;3.60;;;3.30;;
13483;SDS011;6814;57.786;12.080;2022-10-22T10:29:04;3.40;;;3.20;;
13483;SDS011;6814;57.786;12.080;2022-10-22T10:31:37;3.23;;;3.03;;
13483;SDS011;6814;57.786;12.080;2022-10-22T10:34:12;3.03;;;2.77;;
13483;SDS011;6814;57.786;12.080;2022-10-22T10:36:42;3.80;;;2.90;;
13483;SDS011;6814;57.786;12.080;2022-10-22T10:39:11;3.33;;;3.13;;
13483;SDS011;6814;57.786;12.080;2022-10-22T10:41:41;2.97;;;2.83;;
13483;SDS011;6814;57.786;12.080;2022-10-22T10:47:12;3.30;;;3.00;;
13483;SDS011;6814;57.786;12.080;2022-10-22T10:49:42;3.10;;;2.90;;
13483;SDS011;6814;57.786;12.080;2022-10-22T10:52:11;2.60;;;2.50;;
13483;SDS011;6814;57.786;12.080;2022-10-22T10:54:43;2.90;;;2.70;;
13483;SDS011;6814;57.786;12.080;2022-10-22T10:57:14;3.77;;;2.70;;
13483;SDS011;6814;57.786;12.080;2022-10-22T10:59:46;2.70;;;2.50;;
13483;SDS011;6814;57.786;12.080;2022-10-22T11:02:40;3.13;;;2.93;;
13483;SDS011;6814;57.786;12.080;2022-10-22T11:05:19;3.10;;;2.90;;
13483;SDS011;6814;57.786;12.080;2022-10-22T11:07:48;2.90;;;2.70;;
13483;SDS011;6814;57.786;12.080;2022-10-22T11:10:18;6.43;;;5.80;;
13483;SDS011;6814;57.786;12.080;2022-10-22T11:12:47;8.60;;;6.73;;
13483;SDS011;6814;57.786;12.080;2022-10-22T11:15:20;7.50;;;6.60;;
13483;SDS011;6814;57.786;12.080;2022-10-22T11:17:49;4.90;;;4.43;;
13483;SDS011;6814;57.786;12.080;2022-10-22T11:20:17;5.33;;;4.83;;
13483;SDS011;6814;57.786;12.080;2022-10-22T11:22:46;7.27;;;6.57;;
13483;SDS011;6814;57.786;12.080;2022-10-22T11:25:15;8.83;;;8.03;;
13483;SDS011;6814;57.786;12.080;2022-10-22T11:27:44;8.47;;;7.70;;
13483;SDS011;6814;57.786;12.080;2022-10-22T11:30:13;9.00;;;8.20;;
13483;SDS011;6814;57.786;12.080;2022-10-22T11:32:40;8.33;;;7.53;;
13483;SDS011;6814;57.786;12.080;2022-10-22T11:35:11;8.30;;;7.60;;
13483;SDS011;6814;57.786;12.080;2022-10-22T11:37:38;6.93;;;6.33;;
13483;SDS011;6814;57.786;12.080;2022-10-22T11:40:06;6.70;;;6.20;;
13483;SDS011;6814;57.786;12.080;2022-10-22T11:42:34;6.60;;;6.03;;
13483;SDS011;6814;57.786;12.080;2022-10-22T11:45:02;6.17;;;5.67;;
13483;SDS011;6814;57.786;12.080;2022-10-22T11:47:31;5.33;;;4.90;;
13483;SDS011;6814;57.786;12.080;2022-10-22T11:49:58;11.03;;;10.07;;
13483;SDS011;6814;57.786;12.080;2022-10-22T11:52:39;9.93;;;9.07;;
13483;SDS011;6814;57.786;12.080;2022-10-22T11:57:47;7.87;;;7.10;;
13483;SDS011;6814;57.786;12.080;2022-10-22T12:00:31;9.03;;;8.13;;
13483;SDS011;6814;57.786;12.080;2022-10-22T12:03:03;7.97;;;7.23;;
13483;SDS011;6814;57.786;12.080;2022-10-22T12:05:40;6.87;;;6.27;;
13483;SDS011;6814;57.786;12.080;2022-10-22T12:10:59;6.70;;;6.10;;
13483;SDS011;6814;57.786;12.080;2022-10-22T12:13:27;6.00;;;5.60;;
13483;SDS011;6814;57.786;12.080;2022-10-22T12:15:55;5.67;;;5.27;;
13483;SDS011;6814;57.786;12.080;2022-10-22T12:18:23;4.60;;;4.30;;
13483;SDS011;6814;57.786;12.080;2022-10-22T12:20:51;4.53;;;3.70;;
13483;SDS011;6814;57.786;12.080;2022-10-22T12:23:18;4.10;;;3.77;;
13483;SDS011;6814;57.786;12.080;2022-10-22T12:25:46;3.70;;;3.50;;
13483;SDS011;6814;57.786;12.080;2022-10-22T12:28:14;3.63;;;3.43;;
13483;SDS011;6814;57.786;12.080;2022-10-22T12:30:41;3.70;;;3.40;;
13483;SDS011;6814;57.786;12.080;2022-10-22T12:33:16;3.87;;;3.67;;
13483;SDS011;6814;57.786;12.080;2022-10-22T12:35:44;3.93;;;3.63;;
13483;SDS011;6814;57.786;12.080;2022-10-22T12:38:12;3.70;;;3.50;;
13483;SDS011;6814;57.786;12.080;2022-10-22T12:40:39;3.97;;;3.67;;
13483;SDS011;6814;57.786;12.080;2022-10-22T12:43:09;4.10;;;3.80;;
13483;SDS011;6814;57.786;12.080;2022-10-22T12:45:37;3.90;;;3.70;;
13483;SDS011;6814;57.786;12.080;2022-10-22T12:48:05;3.80;;;3.60;;
13483;SDS011;6814;57.786;12.080;2022-10-22T12:50:34;3.93;;;3.67;;
13483;SDS011;6814;57.786;12.080;2022-10-22T12:53:03;4.80;;;4.50;;
13483;SDS011;6814;57.786;12.080;2022-10-22T12:55:30;4.97;;;4.57;;
13483;SDS011;6814;57.786;12.080;2022-10-22T12:57:56;5.10;;;4.80;;
13483;SDS011;6814;57.786;12.080;2022-10-22T13:00:24;5.03;;;4.53;;
13483;SDS011;6814;57.786;12.080;2022-10-22T13:02:52;5.20;;;4.70;;
13483;SDS011;6814;57.786;12.080;2022-10-22T13:05:20;5.30;;;4.80;;
13483;SDS011;6814;57.786;12.080;2022-10-22T13:07:48;6.70;;;5.20;;
13483;SDS011;6814;57.786;12.080;2022-10-22T13:10:17;7.07;;;4.97;;
13483;SDS011;6814;57.786;12.080;2022-10-22T13:12:48;5.23;;;4.80;;
13483;SDS011;6814;57.786;12.080;2022-10-22T13:15:18;5.10;;;4.70;;
13483;SDS011;6814;57.786;12.080;2022-10-22T13:17:45;5.60;;;5.10;;
13483;SDS011;6814;57.786;12.080;2022-10-22T13:20:18;5.57;;;5.17;;
13483;SDS011;6814;57.786;12.080;2022-10-22T13:22:54;5.43;;;4.93;;
13483;SDS011;6814;57.786;12.080;2022-10-22T13:25:24;5.30;;;4.80;;
13483;SDS011;6814;57.786;12.080;2022-10-22T13:27:52;5.30;;;4.63;;
13483;SDS011;6814;57.786;12.080;2022-10-22T13:30:21;5.20;;;4.70;;
13483;SDS011;6814;57.786;12.080;2022-10-22T13:32:48;5.20;;;4.80;;
13483;SDS011;6814;57.786;12.080;2022-10-22T13:35:16;5.57;;;5.17;;
13483;SDS011;6814;57.786;12.080;2022-10-22T13:37:44;5.00;;;4.60;;
13483;SDS011;6814;57.786;12.080;2022-10-22T13:40:11;5.57;;;5.07;;
13483;SDS011;6814;57.786;12.080;2022-10-22T13:42:38;5.40;;;5.00;;
13483;SDS011;6814;57.786;12.080;2022-10-22T13:45:05;5.03;;;4.73;;
13483;SDS011;6814;57.786;12.080;2022-10-22T13:47:31;5.60;;;5.10;;
13483;SDS011;6814;57.786;12.080;2022-10-22T13:49:59;5.93;;;5.43;;
13483;SDS011;6814;57.786;12.080;2022-10-22T13:52:32;6.03;;;5.53;;
13483;SDS011;6814;57.786;12.080;2022-10-22T13:55:01;5.40;;;5.00;;
13483;SDS011;6814;57.786;12.080;2022-10-22T13:57:27;5.17;;;4.67;;
13483;SDS011;6814;57.786;12.080;2022-10-22T13:59:54;7.77;;;5.70;;
13483;SDS011;6814;57.786;12.080;2022-10-22T14:02:20;5.70;;;5.30;;
13483;SDS011;6814;57.786;12.080;2022-10-22T14:04:48;5.43;;;4.93;;
13483;SDS011;6814;57.786;12.080;2022-10-22T14:07:15;5.83;;;5.40;;
13483;SDS011;6814;57.786;12.080;2022-10-22T14:09:42;6.53;;;5.90;;
13483;SDS011;6814;57.786;12.080;2022-10-22T14:12:11;5.70;;;5.30;;
13483;SDS011;6814;57.786;12.080;2022-10-22T14:14:38;5.80;;;5.33;;
13483;SDS011;6814;57.786;12.080;2022-10-22T14:17:05;6.10;;;5.60;;
13483;SDS011;6814;57.786;12.080;2022-10-22T14:19:34;6.10;;;5.53;;
13483;SDS011;6814;57.786;12.080;2022-10-22T14:22:01;5.63;;;5.07;;
13483;SDS011;6814;57.786;12.080;2022-10-22T14:24:32;7.00;;;6.03;;
13483;SDS011;6814;57.786;12.080;2022-10-22T14:27:07;6.30;;;5.77;;
13483;SDS011;6814;57.786;12.080;2022-10-22T14:29:43;8.23;;;6.97;;
13483;SDS011;6814;57.786;12.080;2022-10-22T14:32:14;7.20;;;6.60;;
13483;SDS011;6814;57.786;12.080;2022-10-22T14:34:41;8.53;;;6.37;;
13483;SDS011;6814;57.786;12.080;2022-10-22T14:37:12;6.67;;;6.07;;
13483;SDS011;6814;57.786;12.080;2022-10-22T14:39:39;7.93;;;6.63;;
13483;SDS011;6814;57.786;12.080;2022-10-22T14:42:06;6.27;;;5.77;;
13483;SDS011;6814;57.786;12.080;2022-10-22T14:44:33;6.40;;;5.80;;
13483;SDS011;6814;57.786;12.080;2022-10-22T14:47:01;6.03;;;5.53;;
13483;SDS011;6814;57.786;12.080;2022-10-22T14:49:28;5.70;;;5.20;;
13483;SDS011;6814;57.786;12.080;2022-10-22T14:51:54;6.23;;;5.70;;